KSGF/SGF METAR and TAF weather

Enter ICAO airport designator
Station Type Date Time Source
KSGF METAR 2020/10/20 18:01 UTC NOAA

KSGF 201801Z 16011KT 10SM SCT007 BKN015 OVC022 13/12 A3002 RMK AO2 LTG DSNT SE AND S RAE1758 P0000 T01330122


Station Type Date Time Source
KSGF Decoded METAR 2020/10/20 18:01 UTC NOAA

SPRINGFIELD-BRANSON NATIONAL, MO, United States (KSGF) 37-14N 93-23W 389M
Oct 20, 2020 - 02:01 PM EDT / 2020.10.20 1801 UTC
Wind: from the SSE (160 degrees) at 13 MPH (11 KT):0
Visibility: 10 mile(s):0
Sky conditions: overcast
Weather: Lightning observed
Precipitation last hour: A trace
Temperature: 55.9 F (13.3 C)
Dew Point: 54.0 F (12.2 C)
Relative Humidity: 93%
Pressure (altimeter): 30.02 in. Hg (1016 hPa)
ob: KSGF 201801Z 16011KT 10SM SCT007 BKN015 OVC022 13/12 A3002 RMK AO2 LTG DSNT SE AND S RAE1758 P0000 T01330122
cycle: 18

Station Type Date Time Source
KSGF TAF 2020/10/20 18:22 UTC NOAA

TAF KSGF 201720Z 2018/2118 15011KT P6SM OVC007
FM202000 19010G18KT P6SM OVC009
FM210100 19006KT 6SM BR VCSH OVC006
FM210500 VRB03KT 1SM SHRA VCTS OVC003CB
FM210800 02005KT 3SM SHRA BR BKN010
FM211100 08005KT P6SM BKN009 PROB30 2111/2117 4SM SHRA BR OVC005

Example: see airport list